sensor_id;sensor_type;location;lat;lon;timestamp;pressure;altitude;pressure_sealevel;temperature;humidity
70302;BME280;57706;56.326;43.882;2023-07-29T00:01:36;99429.16;;;22.75;71.42
70302;BME280;57706;56.326;43.882;2023-07-29T00:04:02;99423.53;;;22.72;71.48
70302;BME280;57706;56.326;43.882;2023-07-29T00:06:28;99423.25;;;22.68;71.77
70302;BME280;57706;56.326;43.882;2023-07-29T00:08:54;99419.50;;;22.64;71.74
70302;BME280;57706;56.326;43.882;2023-07-29T00:11:20;99409.34;;;22.55;71.58
70302;BME280;57706;56.326;43.882;2023-07-29T00:13:45;99406.34;;;22.41;71.99
70302;BME280;57706;56.326;43.882;2023-07-29T00:16:13;99405.53;;;22.31;72.17
70302;BME280;57706;56.326;43.882;2023-07-29T00:18:41;99406.03;;;22.22;72.61
70302;BME280;57706;56.326;43.882;2023-07-29T00:21:07;99402.81;;;22.15;72.44
70302;BME280;57706;56.326;43.882;2023-07-29T00:23:33;99404.94;;;22.08;72.35
70302;BME280;57706;56.326;43.882;2023-07-29T00:25:58;99411.31;;;22.02;72.84
70302;BME280;57706;56.326;43.882;2023-07-29T00:28:24;99416.66;;;21.96;73.17
70302;BME280;57706;56.326;43.882;2023-07-29T00:30:50;99414.78;;;21.97;73.19
70302;BME280;57706;56.326;43.882;2023-07-29T00:33:16;99417.19;;;21.98;72.91
70302;BME280;57706;56.326;43.882;2023-07-29T00:35:42;99408.09;;;21.99;73.71
70302;BME280;57706;56.326;43.882;2023-07-29T00:38:08;99403.81;;;22.04;73.43
70302;BME280;57706;56.326;43.882;2023-07-29T00:40:35;99398.25;;;22.10;73.37
70302;BME280;57706;56.326;43.882;2023-07-29T00:43:02;99399.88;;;22.17;73.20
70302;BME280;57706;56.326;43.882;2023-07-29T00:45:29;99391.59;;;22.23;73.06
70302;BME280;57706;56.326;43.882;2023-07-29T00:47:55;99399.59;;;22.28;72.62
70302;BME280;57706;56.326;43.882;2023-07-29T00:50:21;99390.53;;;22.35;71.87
70302;BME280;57706;56.326;43.882;2023-07-29T00:52:48;99385.19;;;22.40;71.68
70302;BME280;57706;56.326;43.882;2023-07-29T00:55:15;99388.94;;;22.49;71.27
70302;BME280;57706;56.326;43.882;2023-07-29T00:57:41;99386.31;;;22.54;71.34
70302;BME280;57706;56.326;43.882;2023-07-29T01:00:08;99378.25;;;22.60;70.46
70302;BME280;57706;56.326;43.882;2023-07-29T01:02:35;99376.38;;;22.65;70.40
70302;BME280;57706;56.326;43.882;2023-07-29T01:05:01;99375.06;;;22.68;70.42
70302;BME280;57706;56.326;43.882;2023-07-29T01:13:19;99386.84;;;22.82;68.78
70302;BME280;57706;56.326;43.882;2023-07-29T01:16:21;99390.06;;;22.90;68.00
70302;BME280;57706;56.326;43.882;2023-07-29T01:18:39;99394.88;;;22.98;66.72
70302;BME280;57706;56.326;43.882;2023-07-29T01:21:09;99401.81;;;22.99;65.92
70302;BME280;57706;56.326;43.882;2023-07-29T01:23:37;99412.00;;;23.02;66.14
70302;BME280;57706;56.326;43.882;2023-07-29T01:26:04;99410.66;;;23.05;66.44
70302;BME280;57706;56.326;43.882;2023-07-29T01:28:30;99407.97;;;23.05;66.11
70302;BME280;57706;56.326;43.882;2023-07-29T01:31:11;99403.16;;;23.07;65.55
70302;BME280;57706;56.326;43.882;2023-07-29T01:33:51;99405.28;;;23.15;64.36
70302;BME280;57706;56.326;43.882;2023-07-29T01:36:21;99401.81;;;23.30;62.17
70302;BME280;57706;56.326;43.882;2023-07-29T01:38:51;99398.56;;;23.33;61.15
70302;BME280;57706;56.326;43.882;2023-07-29T01:41:19;99385.69;;;23.41;61.39
70302;BME280;57706;56.326;43.882;2023-07-29T01:43:46;99387.81;;;23.49;60.49
70302;BME280;57706;56.326;43.882;2023-07-29T01:46:15;99402.31;;;23.48;61.85
70302;BME280;57706;56.326;43.882;2023-07-29T01:48:41;99405.97;;;23.68;58.26
70302;BME280;57706;56.326;43.882;2023-07-29T01:51:07;99403.81;;;23.70;58.39
70302;BME280;57706;56.326;43.882;2023-07-29T01:53:33;99413.19;;;23.83;58.01
70302;BME280;57706;56.326;43.882;2023-07-29T01:55:59;99415.50;;;24.05;55.88
70302;BME280;57706;56.326;43.882;2023-07-29T01:58:25;99426.03;;;23.91;57.11
70302;BME280;57706;56.326;43.882;2023-07-29T02:00:51;99408.53;;;23.93;56.71
70302;BME280;57706;56.326;43.882;2023-07-29T02:03:17;99410.41;;;23.98;56.39
70302;BME280;57706;56.326;43.882;2023-07-29T02:05:43;99402.63;;;24.07;55.67
70302;BME280;57706;56.326;43.882;2023-07-29T02:08:10;99403.63;;;24.22;54.21
70302;BME280;57706;56.326;43.882;2023-07-29T02:10:37;99419.16;;;24.25;55.03
70302;BME280;57706;56.326;43.882;2023-07-29T02:13:03;99423.94;;;24.28;54.20
70302;BME280;57706;56.326;43.882;2023-07-29T02:15:31;99430.91;;;24.34;53.61
70302;BME280;57706;56.326;43.882;2023-07-29T02:17:57;99438.28;;;24.53;52.86
70302;BME280;57706;56.326;43.882;2023-07-29T02:20:25;99434.56;;;24.49;52.35
70302;BME280;57706;56.326;43.882;2023-07-29T02:22:51;99443.13;;;24.56;52.36
70302;BME280;57706;56.326;43.882;2023-07-29T02:25:17;99442.91;;;24.47;52.52
70302;BME280;57706;56.326;43.882;2023-07-29T02:27:45;99449.34;;;24.46;52.28
70302;BME280;57706;56.326;43.882;2023-07-29T02:30:12;99452.28;;;24.50;52.67
70302;BME280;57706;56.326;43.882;2023-07-29T02:32:38;99450.16;;;24.46;52.43
70302;BME280;57706;56.326;43.882;2023-07-29T02:35:05;99445.94;;;24.35;52.77
70302;BME280;57706;56.326;43.882;2023-07-29T02:37:31;99450.38;;;24.55;51.94
70302;BME280;57706;56.326;43.882;2023-07-29T02:39:57;99448.59;;;24.40;52.83
70302;BME280;57706;56.326;43.882;2023-07-29T02:42:23;99441.09;;;24.37;52.69
70302;BME280;57706;56.326;43.882;2023-07-29T02:44:49;99440.88;;;24.28;52.83
70302;BME280;57706;56.326;43.882;2023-07-29T02:47:15;99436.78;;;24.36;52.32
70302;BME280;57706;56.326;43.882;2023-07-29T02:49:41;99426.06;;;24.36;52.80
70302;BME280;57706;56.326;43.882;2023-07-29T02:52:07;99423.16;;;24.27;53.55
70302;BME280;57706;56.326;43.882;2023-07-29T02:54:33;99431.28;;;24.17;54.10
70302;BME280;57706;56.326;43.882;2023-07-29T02:57:00;99420.31;;;24.08;54.76
70302;BME280;57706;56.326;43.882;2023-07-29T02:59:26;99415.50;;;24.05;54.74
70302;BME280;57706;56.326;43.882;2023-07-29T03:01:52;99399.41;;;24.05;55.00
70302;BME280;57706;56.326;43.882;2023-07-29T03:04:19;99381.66;;;24.09;55.13
70302;BME280;57706;56.326;43.882;2023-07-29T03:06:45;99376.28;;;24.14;54.88
70302;BME280;57706;56.326;43.882;2023-07-29T03:09:14;99359.84;;;24.21;55.52
70302;BME280;57706;56.326;43.882;2023-07-29T03:11:40;99347.75;;;24.29;55.82
70302;BME280;57706;56.326;43.882;2023-07-29T03:14:06;99349.34;;;24.30;55.92
70302;BME280;57706;56.326;43.882;2023-07-29T03:16:31;99341.78;;;24.37;55.87
70302;BME280;57706;56.326;43.882;2023-07-29T03:18:59;99357.88;;;24.37;55.83
70302;BME280;57706;56.326;43.882;2023-07-29T03:21:26;99326.72;;;24.36;55.82
70302;BME280;57706;56.326;43.882;2023-07-29T03:23:51;99318.66;;;24.36;56.24
70302;BME280;57706;56.326;43.882;2023-07-29T03:26:17;99309.06;;;24.30;57.32
70302;BME280;57706;56.326;43.882;2023-07-29T03:28:43;99294.72;;;24.10;59.19
70302;BME280;57706;56.326;43.882;2023-07-29T03:31:10;99294.72;;;24.10;59.55
70302;BME280;57706;56.326;43.882;2023-07-29T03:33:36;99280.69;;;24.18;59.08
70302;BME280;57706;56.326;43.882;2023-07-29T03:36:02;99289.81;;;24.23;59.67
70302;BME280;57706;56.326;43.882;2023-07-29T03:38:28;99300.63;;;24.12;60.21
70302;BME280;57706;56.326;43.882;2023-07-29T03:40:54;99298.88;;;24.27;59.54
70302;BME280;57706;56.326;43.882;2023-07-29T03:43:20;99296.75;;;24.29;59.67
70302;BME280;57706;56.326;43.882;2023-07-29T03:45:46;99297.28;;;24.26;59.55
70302;BME280;57706;56.326;43.882;2023-07-29T03:48:12;99290.88;;;24.22;60.02
70302;BME280;57706;56.326;43.882;2023-07-29T03:50:39;99287.19;;;24.12;60.47
70302;BME280;57706;56.326;43.882;2023-07-29T03:53:05;99287.22;;;24.02;60.64
70302;BME280;57706;56.326;43.882;2023-07-29T03:55:32;99284.06;;;23.95;60.97
70302;BME280;57706;56.326;43.882;2023-07-29T03:58:00;99313.28;;;23.96;60.83
70302;BME280;57706;56.326;43.882;2023-07-29T04:00:28;99337.19;;;23.92;60.91
70302;BME280;57706;56.326;43.882;2023-07-29T04:02:55;99328.03;;;24.04;60.51
70302;BME280;57706;56.326;43.882;2023-07-29T04:05:21;99321.44;;;24.26;59.43
70302;BME280;57706;56.326;43.882;2023-07-29T04:07:48;99345.25;;;24.67;58.22
70302;BME280;57706;56.326;43.882;2023-07-29T04:10:14;99329.69;;;25.23;56.49
70302;BME280;57706;56.326;43.882;2023-07-29T04:12:43;99340.56;;;25.62;54.63
70302;BME280;57706;56.326;43.882;2023-07-29T04:15:09;99343.25;;;26.00;53.64
70302;BME280;57706;56.326;43.882;2023-07-29T04:17:35;99342.91;;;26.26;52.35
70302;BME280;57706;56.326;43.882;2023-07-29T04:20:02;99364.78;;;26.19;52.32
70302;BME280;57706;56.326;43.882;2023-07-29T04:22:33;99378.63;;;25.93;53.43
70302;BME280;57706;56.326;43.882;2023-07-29T04:24:59;99381.16;;;26.04;52.84
70302;BME280;57706;56.326;43.882;2023-07-29T04:27:25;99392.63;;;25.71;53.89
70302;BME280;57706;56.326;43.882;2023-07-29T04:29:51;99384.47;;;25.76;53.61
70302;BME280;57706;56.326;43.882;2023-07-29T04:32:17;99380.00;;;25.91;53.70
70302;BME280;57706;56.326;43.882;2023-07-29T04:34:43;99380.84;;;25.67;54.77
70302;BME280;57706;56.326;43.882;2023-07-29T04:37:10;99373.06;;;25.84;54.40
70302;BME280;57706;56.326;43.882;2023-07-29T04:39:36;99372.28;;;26.42;52.81
70302;BME280;57706;56.326;43.882;2023-07-29T04:42:02;99367.22;;;26.73;51.42
70302;BME280;57706;56.326;43.882;2023-07-29T04:44:28;99377.06;;;27.11;50.72
70302;BME280;57706;56.326;43.882;2023-07-29T04:46:54;99390.34;;;27.07;50.25
70302;BME280;57706;56.326;43.882;2023-07-29T04:49:20;99381.19;;;26.75;51.18
70302;BME280;57706;56.326;43.882;2023-07-29T04:51:47;99396.53;;;26.75;51.00
70302;BME280;57706;56.326;43.882;2023-07-29T04:54:13;99395.00;;;26.35;51.37
70302;BME280;57706;56.326;43.882;2023-07-29T04:56:39;99402.66;;;26.28;51.77
70302;BME280;57706;56.326;43.882;2023-07-29T04:59:05;99394.19;;;26.16;52.37
70302;BME280;57706;56.326;43.882;2023-07-29T05:01:34;99394.16;;;26.21;52.45
70302;BME280;57706;56.326;43.882;2023-07-29T05:04:01;99401.41;;;26.39;51.42
70302;BME280;57706;56.326;43.882;2023-07-29T05:06:28;99409.47;;;26.39;51.69
70302;BME280;57706;56.326;43.882;2023-07-29T05:08:57;99395.28;;;26.53;51.43
70302;BME280;57706;56.326;43.882;2023-07-29T05:11:23;99391.75;;;26.72;51.13
70302;BME280;57706;56.326;43.882;2023-07-29T05:13:51;99393.09;;;26.55;52.08
70302;BME280;57706;56.326;43.882;2023-07-29T05:16:17;99378.09;;;26.49;51.76
70302;BME280;57706;56.326;43.882;2023-07-29T05:18:43;99340.81;;;26.56;51.76
70302;BME280;57706;56.326;43.882;2023-07-29T05:21:08;99293.94;;;26.85;51.64
70302;BME280;57706;56.326;43.882;2023-07-29T05:23:36;99286.00;;;27.08;51.00
70302;BME280;57706;56.326;43.882;2023-07-29T05:26:02;99309.97;;;27.10;51.70
70302;BME280;57706;56.326;43.882;2023-07-29T05:28:28;99315.56;;;27.13;51.86
70302;BME280;57706;56.326;43.882;2023-07-29T05:30:54;99328.56;;;27.11;52.00
70302;BME280;57706;56.326;43.882;2023-07-29T05:33:20;99318.34;;;27.22;52.49
70302;BME280;57706;56.326;43.882;2023-07-29T05:35:45;99326.31;;;27.69;50.64
70302;BME280;57706;56.326;43.882;2023-07-29T05:38:13;99335.44;;;28.42;48.38
70302;BME280;57706;56.326;43.882;2023-07-29T05:40:39;99341.31;;;28.67;47.57
70302;BME280;57706;56.326;43.882;2023-07-29T05:43:05;99335.78;;;28.95;47.19
70302;BME280;57706;56.326;43.882;2023-07-29T05:45:31;99326.53;;;28.96;46.90
70302;BME280;57706;56.326;43.882;2023-07-29T05:47:57;99321.63;;;29.56;44.37
70302;BME280;57706;56.326;43.882;2023-07-29T05:50:23;99312.38;;;29.57;45.25
70302;BME280;57706;56.326;43.882;2023-07-29T05:52:49;99314.00;;;29.93;45.22
70302;BME280;57706;56.326;43.882;2023-07-29T05:55:15;99323.50;;;30.53;43.94
70302;BME280;57706;56.326;43.882;2023-07-29T05:57:41;99323.69;;;33.40;37.16
70302;BME280;57706;56.326;43.882;2023-07-29T06:00:08;99315.97;;;36.39;32.54
70302;BME280;57706;56.326;43.882;2023-07-29T06:02:39;99323.47;;;39.02;28.64
70302;BME280;57706;56.326;43.882;2023-07-29T06:05:09;99320.91;;;37.03;30.78
70302;BME280;57706;56.326;43.882;2023-07-29T06:07:35;99319.63;;;33.59;35.06
70302;BME280;57706;56.326;43.882;2023-07-29T06:10:00;99304.81;;;32.02;38.06
70302;BME280;57706;56.326;43.882;2023-07-29T06:12:26;99304.41;;;31.48;39.60
70302;BME280;57706;56.326;43.882;2023-07-29T06:14:52;99303.97;;;31.67;41.01
70302;BME280;57706;56.326;43.882;2023-07-29T06:17:18;99310.84;;;31.65;42.18
70302;BME280;57706;56.326;43.882;2023-07-29T06:19:44;99309.97;;;31.73;43.05
70302;BME280;57706;56.326;43.882;2023-07-29T06:22:10;99306.34;;;31.69;43.48
70302;BME280;57706;56.326;43.882;2023-07-29T06:24:35;99310.56;;;32.00;42.95
70302;BME280;57706;56.326;43.882;2023-07-29T06:27:01;99309.22;;;32.86;42.00
70302;BME280;57706;56.326;43.882;2023-07-29T06:29:28;99299.88;;;34.99;38.46
70302;BME280;57706;56.326;43.882;2023-07-29T06:31:54;99297.91;;;38.90;30.04
70302;BME280;57706;56.326;43.882;2023-07-29T06:34:20;99296.41;;;39.00;27.39
70302;BME280;57706;56.326;43.882;2023-07-29T06:36:46;99290.53;;;40.96;25.25
70302;BME280;57706;56.326;43.882;2023-07-29T06:39:12;99281.94;;;42.36;23.90
70302;BME280;57706;56.326;43.882;2023-07-29T06:41:37;99268.88;;;42.86;22.64
70302;BME280;57706;56.326;43.882;2023-07-29T06:44:04;99273.72;;;43.75;21.33
70302;BME280;57706;56.326;43.882;2023-07-29T06:46:30;99276.84;;;39.09;26.59
70302;BME280;57706;56.326;43.882;2023-07-29T06:48:56;99272.03;;;35.85;31.68
70302;BME280;57706;56.326;43.882;2023-07-29T06:51:22;99282.56;;;33.17;35.84
70302;BME280;57706;56.326;43.882;2023-07-29T06:53:48;99272.81;;;32.41;38.70
70302;BME280;57706;56.326;43.882;2023-07-29T06:56:13;99279.56;;;34.49;37.67
70302;BME280;57706;56.326;43.882;2023-07-29T06:58:39;99272.19;;;34.17;40.28
70302;BME280;57706;56.326;43.882;2023-07-29T07:01:05;99263.31;;;37.23;33.44
70302;BME280;57706;56.326;43.882;2023-07-29T07:03:31;99255.16;;;39.82;29.10
70302;BME280;57706;56.326;43.882;2023-07-29T07:05:57;99258.25;;;39.69;29.36
70302;BME280;57706;56.326;43.882;2023-07-29T07:08:22;99299.25;;;39.18;31.01
70302;BME280;57706;56.326;43.882;2023-07-29T07:10:48;99306.66;;;44.21;24.01
70302;BME280;57706;56.326;43.882;2023-07-29T07:13:14;99290.38;;;43.99;23.11
70302;BME280;57706;56.326;43.882;2023-07-29T07:15:40;99291.38;;;45.61;22.58
70302;BME280;57706;56.326;43.882;2023-07-29T07:18:06;99294.19;;;48.11;19.49
70302;BME280;57706;56.326;43.882;2023-07-29T07:20:32;99283.53;;;46.26;19.51
70302;BME280;57706;56.326;43.882;2023-07-29T07:22:57;99279.63;;;43.77;21.75
70302;BME280;57706;56.326;43.882;2023-07-29T07:25:23;99276.72;;;38.94;28.54
70302;BME280;57706;56.326;43.882;2023-07-29T07:27:49;99272.91;;;41.75;25.87
70302;BME280;57706;56.326;43.882;2023-07-29T07:30:15;99265.81;;;47.25;19.79
70302;BME280;57706;56.326;43.882;2023-07-29T07:32:41;99251.16;;;48.83;18.20
70302;BME280;57706;56.326;43.882;2023-07-29T07:35:07;99250.13;;;48.89;17.94
70302;BME280;57706;56.326;43.882;2023-07-29T07:37:33;99249.44;;;49.08;17.37
70302;BME280;57706;56.326;43.882;2023-07-29T07:39:58;99233.28;;;49.75;16.14
70302;BME280;57706;56.326;43.882;2023-07-29T07:42:24;99234.75;;;48.05;18.20
70302;BME280;57706;56.326;43.882;2023-07-29T07:44:50;99231.50;;;48.42;18.17
70302;BME280;57706;56.326;43.882;2023-07-29T07:47:16;99239.03;;;47.45;18.74
70302;BME280;57706;56.326;43.882;2023-07-29T07:49:41;99247.22;;;48.13;17.89
70302;BME280;57706;56.326;43.882;2023-07-29T07:52:07;99238.94;;;46.93;18.69
70302;BME280;57706;56.326;43.882;2023-07-29T07:54:33;99223.88;;;47.20;19.05
70302;BME280;57706;56.326;43.882;2023-07-29T07:56:59;99220.16;;;48.36;17.82
70302;BME280;57706;56.326;43.882;2023-07-29T07:59:25;99222.78;;;48.75;17.40
70302;BME280;57706;56.326;43.882;2023-07-29T08:01:50;99224.31;;;49.80;16.74
70302;BME280;57706;56.326;43.882;2023-07-29T08:04:18;99214.13;;;50.33;16.42
70302;BME280;57706;56.326;43.882;2023-07-29T08:06:44;99218.38;;;48.87;17.21
70302;BME280;57706;56.326;43.882;2023-07-29T08:09:09;99217.78;;;49.65;16.68
70302;BME280;57706;56.326;43.882;2023-07-29T08:11:35;99205.41;;;50.78;15.15
70302;BME280;57706;56.326;43.882;2023-07-29T08:14:01;99204.50;;;48.52;16.41
70302;BME280;57706;56.326;43.882;2023-07-29T08:16:27;99200.81;;;49.09;16.45
70302;BME280;57706;56.326;43.882;2023-07-29T08:18:53;99202.22;;;48.82;16.48
70302;BME280;57706;56.326;43.882;2023-07-29T08:21:19;99210.81;;;46.48;18.72
70302;BME280;57706;56.326;43.882;2023-07-29T08:23:45;99209.72;;;44.89;19.94
70302;BME280;57706;56.326;43.882;2023-07-29T08:26:10;99203.66;;;47.32;18.25
70302;BME280;57706;56.326;43.882;2023-07-29T08:28:38;99212.44;;;46.75;18.24
70302;BME280;57706;56.326;43.882;2023-07-29T08:31:05;99199.69;;;44.34;20.68
70302;BME280;57706;56.326;43.882;2023-07-29T08:33:32;99188.84;;;45.41;19.87
70302;BME280;57706;56.326;43.882;2023-07-29T08:35:59;99192.16;;;47.69;17.68
70302;BME280;57706;56.326;43.882;2023-07-29T08:38:25;99180.19;;;48.97;16.22
70302;BME280;57706;56.326;43.882;2023-07-29T08:41:13;99172.38;;;50.58;15.24
70302;BME280;57706;56.326;43.882;2023-07-29T08:43:43;99177.06;;;49.26;16.35
70302;BME280;57706;56.326;43.882;2023-07-29T08:46:09;99179.19;;;51.09;14.62
70302;BME280;57706;56.326;43.882;2023-07-29T08:48:42;99173.50;;;50.32;15.06
70302;BME280;57706;56.326;43.882;2023-07-29T08:51:09;99169.88;;;50.60;15.62
70302;BME280;57706;56.326;43.882;2023-07-29T08:53:36;99176.41;;;47.40;18.63
70302;BME280;57706;56.326;43.882;2023-07-29T08:56:02;99180.22;;;49.06;16.85
70302;BME280;57706;56.326;43.882;2023-07-29T08:58:28;99171.31;;;50.08;15.64
70302;BME280;57706;56.326;43.882;2023-07-29T09:00:54;99173.97;;;50.92;15.14
70302;BME280;57706;56.326;43.882;2023-07-29T09:03:21;99164.97;;;51.56;14.29
70302;BME280;57706;56.326;43.882;2023-07-29T09:05:47;99166.47;;;54.15;13.21
70302;BME280;57706;56.326;43.882;2023-07-29T09:08:14;99147.13;;;54.55;12.38
70302;BME280;57706;56.326;43.882;2023-07-29T09:10:40;99151.66;;;53.10;13.39
70302;BME280;57706;56.326;43.882;2023-07-29T09:13:07;99156.13;;;54.06;12.83
70302;BME280;57706;56.326;43.882;2023-07-29T09:15:34;99163.13;;;52.62;14.43
70302;BME280;57706;56.326;43.882;2023-07-29T09:18:18;99152.13;;;54.13;13.25
70302;BME280;57706;56.326;43.882;2023-07-29T09:20:48;99145.78;;;52.93;13.21
70302;BME280;57706;56.326;43.882;2023-07-29T09:23:15;99151.03;;;51.46;14.78
70302;BME280;57706;56.326;43.882;2023-07-29T09:25:41;99147.53;;;51.61;14.94
70302;BME280;57706;56.326;43.882;2023-07-29T09:28:12;99151.13;;;52.16;14.46
70302;BME280;57706;56.326;43.882;2023-07-29T09:30:39;99156.59;;;49.20;17.11
70302;BME280;57706;56.326;43.882;2023-07-29T09:33:06;99147.13;;;49.17;16.75
70302;BME280;57706;56.326;43.882;2023-07-29T09:35:34;99149.78;;;53.43;13.77
70302;BME280;57706;56.326;43.882;2023-07-29T09:38:01;99147.06;;;55.19;11.67
70302;BME280;57706;56.326;43.882;2023-07-29T09:40:27;99150.28;;;53.62;12.48
70302;BME280;57706;56.326;43.882;2023-07-29T09:42:54;99153.31;;;50.09;14.87
70302;BME280;57706;56.326;43.882;2023-07-29T09:45:25;99167.31;;;50.80;14.17
70302;BME280;57706;56.326;43.882;2023-07-29T09:47:53;99166.13;;;48.78;16.12
70302;BME280;57706;56.326;43.882;2023-07-29T09:50:23;99175.41;;;48.30;17.09
70302;BME280;57706;56.326;43.882;2023-07-29T09:52:51;99181.06;;;46.32;18.30
70302;BME280;57706;56.326;43.882;2023-07-29T09:55:18;99181.63;;;46.99;18.00
70302;BME280;57706;56.326;43.882;2023-07-29T09:57:45;99175.16;;;45.50;19.80
70302;BME280;57706;56.326;43.882;2023-07-29T10:00:12;99184.66;;;46.75;18.61
70302;BME280;57706;56.326;43.882;2023-07-29T10:02:42;99186.97;;;49.96;15.82
70302;BME280;57706;56.326;43.882;2023-07-29T10:05:09;99219.38;;;48.80;16.03
70302;BME280;57706;56.326;43.882;2023-07-29T10:07:39;99205.81;;;46.10;18.71
70302;BME280;57706;56.326;43.882;2023-07-29T10:10:07;99221.41;;;39.96;25.68
70302;BME280;57706;56.326;43.882;2023-07-29T10:12:34;99232.16;;;37.66;29.42
70302;BME280;57706;56.326;43.882;2023-07-29T10:15:03;99232.00;;;34.98;34.38
70302;BME280;57706;56.326;43.882;2023-07-29T10:17:35;99232.84;;;33.73;36.32
70302;BME280;57706;56.326;43.882;2023-07-29T10:20:04;99217.19;;;32.88;38.71
70302;BME280;57706;56.326;43.882;2023-07-29T10:22:38;99242.97;;;32.32;40.04
70302;BME280;57706;56.326;43.882;2023-07-29T10:25:09;99312.69;;;31.73;39.75
70302;BME280;57706;56.326;43.882;2023-07-29T10:28:06;99274.13;;;30.86;40.30
70302;BME280;57706;56.326;43.882;2023-07-29T10:30:32;99341.38;;;29.65;40.94
70302;BME280;57706;56.326;43.882;2023-07-29T10:33:02;99417.63;;;28.87;45.16
70302;BME280;57706;56.326;43.882;2023-07-29T10:35:28;99451.13;;;24.61;61.30
70302;BME280;57706;56.326;43.882;2023-07-29T10:37:55;99457.91;;;22.16;75.27
70302;BME280;57706;56.326;43.882;2023-07-29T10:40:21;99477.44;;;21.20;82.93
70302;BME280;57706;56.326;43.882;2023-07-29T10:43:01;99494.00;;;20.40;94.71
70302;BME280;57706;56.326;43.882;2023-07-29T10:45:37;99482.09;;;19.86;97.34
70302;BME280;57706;56.326;43.882;2023-07-29T10:48:13;99466.09;;;19.63;100.00
70302;BME280;57706;56.326;43.882;2023-07-29T10:51:24;99433.44;;;19.73;100.00
70302;BME280;57706;56.326;43.882;2023-07-29T10:53:59;99405.63;;;20.08;100.00
70302;BME280;57706;56.326;43.882;2023-07-29T10:56:35;99387.13;;;20.24;100.00
70302;BME280;57706;56.326;43.882;2023-07-29T11:01:57;99348.06;;;20.73;100.00
70302;BME280;57706;56.326;43.882;2023-07-29T11:04:28;99337.84;;;20.65;100.00
70302;BME280;57706;56.326;43.882;2023-07-29T11:17:35;99330.22;;;21.16;100.00
70302;BME280;57706;56.326;43.882;2023-07-29T11:20:03;99334.78;;;21.21;100.00
70302;BME280;57706;56.326;43.882;2023-07-29T11:22:30;99327.63;;;21.32;100.00
70302;BME280;57706;56.326;43.882;2023-07-29T11:24:56;99317.03;;;21.58;100.00
70302;BME280;57706;56.326;43.882;2023-07-29T11:27:22;99316.06;;;21.85;100.00
70302;BME280;57706;56.326;43.882;2023-07-29T11:29:48;99309.16;;;22.25;100.00
70302;BME280;57706;56.326;43.882;2023-07-29T11:32:15;99308.63;;;22.70;100.00
70302;BME280;57706;56.326;43.882;2023-07-29T11:34:42;99300.81;;;23.05;100.00
70302;BME280;57706;56.326;43.882;2023-07-29T11:37:11;99298.81;;;23.47;100.00
70302;BME280;57706;56.326;43.882;2023-07-29T11:39:44;99294.28;;;23.92;100.00
70302;BME280;57706;56.326;43.882;2023-07-29T11:42:11;99291.38;;;24.29;94.49
70302;BME280;57706;56.326;43.882;2023-07-29T11:44:38;99287.59;;;24.89;94.01
70302;BME280;57706;56.326;43.882;2023-07-29T11:47:11;99269.09;;;25.75;92.85
70302;BME280;57706;56.326;43.882;2023-07-29T11:49:38;99247.97;;;26.34;82.39
70302;BME280;57706;56.326;43.882;2023-07-29T11:52:07;99243.81;;;27.40;83.32
70302;BME280;57706;56.326;43.882;2023-07-29T11:54:38;99219.09;;;28.70;78.08
70302;BME280;57706;56.326;43.882;2023-07-29T11:57:08;99197.22;;;30.13;69.27
70302;BME280;57706;56.326;43.882;2023-07-29T11:59:35;99196.75;;;30.11;65.65
70302;BME280;57706;56.326;43.882;2023-07-29T12:02:06;99195.19;;;29.12;64.93
70302;BME280;57706;56.326;43.882;2023-07-29T12:04:34;99205.25;;;28.63;69.29
70302;BME280;57706;56.326;43.882;2023-07-29T12:07:00;99188.44;;;28.02;72.65
70302;BME280;57706;56.326;43.882;2023-07-29T12:09:27;99183.13;;;27.52;73.04
70302;BME280;57706;56.326;43.882;2023-07-29T12:11:54;99181.66;;;26.80;73.75
70302;BME280;57706;56.326;43.882;2023-07-29T12:14:20;99184.56;;;26.42;73.37
70302;BME280;57706;56.326;43.882;2023-07-29T12:16:48;99185.91;;;26.11;72.47
70302;BME280;57706;56.326;43.882;2023-07-29T12:19:15;99200.38;;;25.82;74.23
70302;BME280;57706;56.326;43.882;2023-07-29T12:21:42;99213.75;;;25.49;74.76
70302;BME280;57706;56.326;43.882;2023-07-29T12:24:08;99224.00;;;25.28;78.45
70302;BME280;57706;56.326;43.882;2023-07-29T12:26:36;99225.88;;;25.08;81.22
70302;BME280;57706;56.326;43.882;2023-07-29T12:29:12;99224.84;;;24.80;79.14
70302;BME280;57706;56.326;43.882;2023-07-29T12:31:38;99232.00;;;24.60;82.69
70302;BME280;57706;56.326;43.882;2023-07-29T12:34:04;99232.22;;;24.39;80.49
70302;BME280;57706;56.326;43.882;2023-07-29T12:36:43;99238.72;;;24.33;81.83
70302;BME280;57706;56.326;43.882;2023-07-29T12:39:39;99253.94;;;24.08;81.83
70302;BME280;57706;56.326;43.882;2023-07-29T12:42:03;99267.94;;;24.00;83.89
70302;BME280;57706;56.326;43.882;2023-07-29T12:44:33;99277.09;;;23.93;84.40
70302;BME280;57706;56.326;43.882;2023-07-29T12:47:04;99277.66;;;23.90;86.02
70302;BME280;57706;56.326;43.882;2023-07-29T12:49:30;99281.97;;;23.86;85.81
70302;BME280;57706;56.326;43.882;2023-07-29T12:51:58;99275.03;;;23.80;87.45
70302;BME280;57706;56.326;43.882;2023-07-29T12:54:24;99268.09;;;23.74;89.46
70302;BME280;57706;56.326;43.882;2023-07-29T12:56:51;99253.13;;;23.68;89.48
70302;BME280;57706;56.326;43.882;2023-07-29T12:59:17;99251.53;;;23.67;90.39
70302;BME280;57706;56.326;43.882;2023-07-29T13:01:43;99251.31;;;23.58;87.27
70302;BME280;57706;56.326;43.882;2023-07-29T13:04:12;99254.88;;;23.43;85.10
70302;BME280;57706;56.326;43.882;2023-07-29T13:06:38;99245.25;;;23.36;85.33
70302;BME280;57706;56.326;43.882;2023-07-29T13:09:04;99250.13;;;23.29;85.67
70302;BME280;57706;56.326;43.882;2023-07-29T13:11:31;99258.69;;;23.31;87.63